X  Schlie├čen METAR Luftfahrt Wetterdaten     EDDH Hamburg Helmut Schmidt Airport
Temperatur
21°C Temperatur
11°C Taupunkt
53% Feuchtigkeit



Wind
16 KM/S
10 MPS
4 M/S
9 KTS



320°
NW
Aktuelle Wetterlage

Klar Klar
Luftdruck 1018.92 (hPa) - 30.09 (inHg)
Sichtweite 6.2 (Meile) - 10 (Km)
Flughafen
Flughafen Code EDDH

Position : Hamburg Helmut Schmidt Airport
Entfernung: 11 (Km)

Metar:
EDDH 061820Z AUTO 32009KT CAVOK 21/11 Q1019 NOSIG

Zeit: 06-06-2023 18:20 CEST